createdAt,value
2024-04-24T00:03:30.899Z,46.1555
2024-04-24T00:13:39.756Z,46.1342
2024-04-24T00:23:48.549Z,46.1300
2024-04-24T00:34:09.772Z,46.1300
2024-04-24T00:44:18.383Z,46.1300
2024-04-24T00:54:27.090Z,46.1300
2024-04-24T01:04:36.776Z,46.1300
2024-04-24T01:14:45.295Z,46.1188
2024-04-24T01:25:06.465Z,46.0812
2024-04-24T01:35:27.705Z,46.0700
2024-04-24T01:45:36.434Z,46.0700
2024-04-24T01:55:46.060Z,46.0625
2024-04-24T02:05:54.644Z,46.0600
2024-04-24T02:16:15.838Z,46.0600
2024-04-24T02:26:37.020Z,46.0551
2024-04-24T02:36:45.626Z,46.0377
2024-04-24T02:46:54.556Z,46.0100
2024-04-24T02:57:15.758Z,46.0100
2024-04-24T03:07:24.379Z,46.0100
2024-04-24T03:17:34.304Z,46.0071
2024-04-24T03:27:43.011Z,46.0000
2024-04-24T03:38:04.179Z,46.0000
2024-04-24T03:48:25.559Z,46.0000
2024-04-24T03:58:34.621Z,46.0000
2024-04-24T04:08:43.220Z,46.0000
2024-04-24T04:18:53.008Z,46.0000
2024-04-24T04:29:05.962Z,46.0000
2024-04-24T04:39:15.709Z,45.9987
2024-04-24T04:49:24.505Z,45.9813
2024-04-24T04:59:34.169Z,45.9800
2024-04-24T05:09:42.796Z,45.9800
2024-04-24T05:20:04.330Z,45.9800
2024-04-24T05:30:13.190Z,45.9723
2024-04-24T05:40:24.196Z,45.9700
2024-04-24T05:50:33.095Z,45.9844
2024-04-24T06:00:42.145Z,45.9850
2024-04-24T06:11:00.721Z,45.9642
2024-04-24T06:21:09.900Z,45.9425
2024-04-24T06:31:18.848Z,45.9179
2024-04-24T06:41:27.896Z,45.9100
2024-04-24T06:51:39.080Z,45.9100
2024-04-24T07:01:48.368Z,45.8979
2024-04-24T07:12:04.922Z,45.8406
2024-04-24T07:22:16.456Z,45.8200
2024-04-24T07:32:25.232Z,45.8166
2024-04-24T07:42:33.995Z,45.8100
2024-04-24T07:52:45.364Z,45.8100
2024-04-24T08:02:54.477Z,45.7979
2024-04-24T08:13:10.426Z,45.7900
2024-04-24T08:23:24.002Z,45.7802
2024-04-24T08:33:34.512Z,45.7800
2024-04-24T08:43:43.350Z,45.7800
2024-04-24T08:53:59.078Z,45.7800
2024-04-24T09:04:08.281Z,45.7646
2024-04-24T09:14:17.521Z,45.7479
2024-04-24T09:24:26.606Z,45.7300
2024-04-24T09:34:36.416Z,45.7240
2024-04-24T09:44:45.720Z,45.7117
2024-04-24T09:54:55.403Z,45.7000
2024-04-24T10:05:04.348Z,45.7000
2024-04-24T10:15:13.297Z,45.6912
2024-04-24T10:25:23.083Z,45.6838
2024-04-24T10:35:32.012Z,45.6754
2024-04-24T10:45:42.651Z,45.6700
2024-04-24T10:55:52.021Z,45.6602
2024-04-24T11:06:00.995Z,45.6515
2024-04-24T11:16:11.276Z,45.6358
2024-04-24T11:26:20.270Z,45.6275
2024-04-24T11:36:29.119Z,45.6054
2024-04-24T11:46:38.724Z,45.6190
2024-04-24T11:56:47.356Z,45.6025
2024-04-24T12:06:56.023Z,45.5892
2024-04-24T12:17:04.950Z,45.5713
2024-04-24T12:27:13.736Z,45.5762
2024-04-24T12:37:34.990Z,45.5700
2024-04-24T12:47:43.999Z,45.5700
2024-04-24T12:57:52.763Z,45.5629
2024-04-24T13:08:14.030Z,45.5639
2024-04-24T13:18:23.476Z,45.5377
2024-04-24T13:28:33.087Z,45.5279
2024-04-24T13:38:54.318Z,45.4790
2024-04-24T13:49:03.394Z,45.4702
2024-04-24T13:59:13.277Z,45.4683
2024-04-24T14:09:22.272Z,45.4592
2024-04-24T14:19:31.163Z,45.4354
2024-04-24T14:29:39.977Z,45.4300
2024-04-24T14:39:48.861Z,45.4221
2024-04-24T14:50:01.618Z,45.4073
2024-04-24T15:00:10.531Z,45.3967
2024-04-24T15:10:19.352Z,45.3838
2024-04-24T15:20:40.601Z,45.3802
2024-04-24T15:30:49.584Z,45.3713
2024-04-24T15:40:58.381Z,45.3592
2024-04-24T15:51:19.599Z,45.3441
2024-04-24T16:01:28.563Z,45.3279
2024-04-24T16:11:37.511Z,45.3167
2024-04-24T16:21:46.447Z,45.3071
2024-04-24T16:31:55.286Z,45.2954
2024-04-24T16:42:03.800Z,45.2808
2024-04-24T16:52:25.033Z,45.2737
2024-04-24T17:02:34.039Z,45.2456
2024-04-24T17:12:42.938Z,45.2275
2024-04-24T17:22:51.818Z,45.2285
2024-04-24T17:33:00.722Z,45.2329
2024-04-24T17:43:09.702Z,45.2125
2024-04-24T17:53:18.426Z,45.1996
2024-04-24T18:03:39.715Z,45.1812
2024-04-24T18:13:48.692Z,45.1700
2024-04-24T18:23:57.476Z,45.1712
2024-04-24T18:34:18.711Z,45.1727
2024-04-24T18:44:40.085Z,45.1616
2024-04-24T18:54:48.880Z,45.1733
2024-04-24T19:05:00.030Z,45.1617
2024-04-24T19:15:08.805Z,45.1590
2024-04-24T19:25:30.136Z,45.1541
2024-04-24T19:35:38.955Z,45.1488
2024-04-24T19:45:47.941Z,45.1413
2024-04-24T19:55:56.729Z,45.1600
2024-04-24T20:06:05.370Z,45.1523
2024-04-24T20:16:14.196Z,45.1500
2024-04-24T20:26:35.586Z,45.1402
2024-04-24T20:36:44.484Z,45.1400
2024-04-24T20:46:53.265Z,45.1379
2024-04-24T20:57:14.482Z,45.1200
2024-04-24T21:07:23.203Z,45.1344
2024-04-24T21:17:32.028Z,45.1246
2024-04-24T21:27:40.841Z,45.1079
2024-04-24T21:37:49.430Z,45.0904
2024-04-24T21:48:10.700Z,45.1182
2024-04-24T21:58:31.955Z,45.1794
2024-04-24T22:08:40.743Z,45.1046
2024-04-24T22:18:49.791Z,45.0900
2024-04-24T22:28:58.624Z,45.0848
2024-04-24T22:39:07.259Z,45.0790
2024-04-24T22:49:28.497Z,45.0771
2024-04-24T22:59:37.328Z,45.0900
2024-04-24T23:09:45.970Z,45.0835
2024-04-24T23:20:07.252Z,45.0749
2024-04-24T23:30:15.823Z,45.0756
2024-04-24T23:40:24.507Z,45.0598
2024-04-24T23:50:33.341Z,45.0763
